Time;durP1;ratioP1;P1;durP2;ratioP2;P2;SDS_P1;SDS_P2;PMS_P1;PMS_P2;Temp;Humidity;BMP_temperature;BMP_pressure;BME280_temperature;BME280_humidity;BME280_pressure;Samples;Min_cycle;Max_cycle;Signal;HPM_P1;HPM_P2
2022/05/18 00:01:34;;;;;;;8.70;4.65;;;;;;;17.94;100.00;101841.75;5070380;28;20052;-30
2022/05/18 00:04:03;;;;;;;8.68;4.72;;;;;;;17.88;100.00;101839.06;5071289;28;20052;-29
2022/05/18 00:06:31;;;;;;;7.30;4.72;;;;;;;17.86;100.00;101840.53;5071147;28;20052;-32
2022/05/18 00:08:59;;;;;;;7.13;4.40;;;;;;;17.82;100.00;101839.53;5070482;28;20056;-29
2022/05/18 00:11:28;;;;;;;7.75;4.57;;;;;;;17.80;100.00;101844.66;5071384;28;20044;-28
2022/05/18 00:13:56;;;;;;;7.80;5.00;;;;;;;17.76;100.00;101840.84;5071235;28;20048;-28
2022/05/18 00:16:26;;;;;;;7.93;4.90;;;;;;;17.74;100.00;101845.97;5070411;28;20561;-29
2022/05/18 00:18:55;;;;;;;10.00;4.85;;;;;;;17.70;100.00;101844.94;5071026;28;20553;-32
2022/05/18 00:21:23;;;;;;;9.73;5.88;;;;;;;17.64;100.00;101849.88;5071275;28;20044;-27
2022/05/18 00:23:51;;;;;;;8.35;4.45;;;;;;;17.62;100.00;101851.31;5070245;28;20041;-27
2022/05/18 00:26:19;;;;;;;9.95;5.70;;;;;;;17.58;100.00;101851.97;5060146;28;20064;-30
2022/05/18 00:28:48;;;;;;;9.27;5.07;;;;;;;17.55;100.00;101847.00;5070939;28;20044;-28
2022/05/18 00:31:18;;;;;;;8.77;5.15;;;;;;;17.51;100.00;101851.63;5070064;28;20044;-29
2022/05/18 00:33:46;;;;;;;7.85;5.38;;;;;;;17.45;100.00;101850.06;5070806;28;20130;-32
2022/05/18 00:36:14;;;;;;;8.57;4.63;;;;;;;17.43;100.00;101845.91;5067668;28;20050;-38
2022/05/18 00:38:42;;;;;;;5.95;4.28;;;;;;;17.41;100.00;101851.84;5070463;28;20040;-29
2022/05/18 00:41:10;;;;;;;8.35;4.85;;;;;;;17.37;100.00;101852.84;5070500;28;20045;-33
2022/05/18 00:43:41;;;;;;;8.27;5.25;;;;;;;17.35;100.00;101856.00;5070776;28;20142;-29
2022/05/18 00:46:13;;;;;;;8.13;5.10;;;;;;;17.31;100.00;101854.97;5070667;28;20056;-29
2022/05/18 00:48:41;;;;;;;8.30;5.57;;;;;;;17.26;100.00;101849.44;5071067;28;20413;-31
2022/05/18 00:51:17;;;;;;;9.98;6.05;;;;;;;17.23;100.00;101858.53;5069946;28;20051;-30
2022/05/18 00:53:51;;;;;;;10.52;5.80;;;;;;;17.16;100.00;101856.19;5070712;28;20146;-35
2022/05/18 00:56:23;;;;;;;8.38;5.55;;;;;;;17.12;100.00;101860.78;5070774;28;20060;-37
2022/05/18 00:58:56;;;;;;;10.30;5.90;;;;;;;17.09;100.00;101854.94;5070112;28;20048;-31
2022/05/18 01:01:26;;;;;;;8.10;5.32;;;;;;;17.05;100.00;101866.03;5070907;28;20055;-39
2022/05/18 01:03:55;;;;;;;9.52;6.07;;;;;;;17.02;100.00;101860.19;5067584;28;20041;-33
2022/05/18 01:06:30;;;;;;;9.40;4.75;;;;;;;16.99;100.00;101856.00;5070547;28;20045;-32
2022/05/18 01:09:04;;;;;;;8.13;5.10;;;;;;;16.96;100.00;101858.66;5074449;28;20044;-30
2022/05/18 01:11:34;;;;;;;7.82;4.80;;;;;;;16.93;100.00;101864.91;5069313;28;20405;-30
2022/05/18 01:14:04;;;;;;;10.30;6.50;;;;;;;16.91;100.00;101861.59;5073836;28;20063;-29
2022/05/18 01:16:33;;;;;;;8.93;5.55;;;;;;;16.86;100.00;101857.72;5074434;28;20484;-36
2022/05/18 01:19:02;;;;;;;9.38;6.05;;;;;;;16.83;100.00;101861.16;5073551;28;20068;-29
2022/05/18 01:21:36;;;;;;;8.88;6.25;;;;;;;16.81;100.00;101857.00;5074014;28;20514;-34
2022/05/18 01:24:13;;;;;;;9.18;6.03;;;;;;;16.79;100.00;101856.47;5074689;28;20045;-29
2022/05/18 01:26:44;;;;;;;10.48;5.85;;;;;;;16.75;100.00;101852.66;5073532;28;20041;-31
2022/05/18 01:29:14;;;;;;;9.98;6.53;;;;;;;16.72;100.00;101850.47;5074169;28;20045;-29
2022/05/18 01:31:45;;;;;;;8.93;6.45;;;;;;;16.69;100.00;101851.09;5074299;28;20119;-29
2022/05/18 01:34:14;;;;;;;13.90;6.55;;;;;;;16.67;100.00;101850.56;5073335;28;20059;-35
2022/05/18 01:36:42;;;;;;;9.02;7.07;;;;;;;16.66;100.00;101854.53;5074222;28;20040;-33
2022/05/18 01:39:14;;;;;;;10.77;7.20;;;;;;;16.66;100.00;101863.81;5073879;28;20045;-30
2022/05/18 01:41:51;;;;;;;10.88;6.38;;;;;;;16.66;100.00;101855.38;5073427;28;20045;-29
2022/05/18 01:44:20;;;;;;;9.02;6.72;;;;;;;16.64;100.00;101851.19;5073165;28;20071;-29
2022/05/18 01:46:48;;;;;;;13.00;6.68;;;;;;;16.61;100.00;101860.25;5072097;28;20051;-29
2022/05/18 01:49:16;;;;;;;9.77;6.68;;;;;;;16.59;100.00;101854.09;5071187;28;20051;-37
2022/05/18 01:51:47;;;;;;;9.18;6.45;;;;;;;16.55;100.00;101845.47;5072277;28;20047;-33
2022/05/18 01:54:15;;;;;;;7.97;5.73;;;;;;;16.52;100.00;101848.91;5071718;28;20063;-29
2022/05/18 01:56:44;;;;;;;11.23;6.20;;;;;;;16.48;100.00;101851.50;5072460;28;20048;-31
2022/05/18 01:59:12;;;;;;;8.85;5.88;;;;;;;16.46;100.00;101848.16;5073106;28;20044;-28
2022/05/18 02:01:40;;;;;;;12.30;7.72;;;;;;;16.45;100.00;101845.66;5072848;28;20059;-29
2022/05/18 02:04:08;;;;;;;9.50;6.57;;;;;;;16.44;100.00;101849.63;5070038;28;20044;-29
2022/05/18 02:06:36;;;;;;;9.95;7.10;;;;;;;16.41;100.00;101837.00;5073702;28;20516;-34
2022/05/18 02:09:05;;;;;;;10.07;6.70;;;;;;;16.41;100.00;101839.81;5072641;28;20041;-29
2022/05/18 02:11:35;;;;;;;11.48;6.63;;;;;;;16.41;100.00;101838.97;5073262;28;20056;-30
2022/05/18 02:14:04;;;;;;;9.98;7.30;;;;;;;16.41;100.00;101836.16;5073702;28;20071;-29
2022/05/18 02:16:32;;;;;;;14.05;7.75;;;;;;;16.41;100.00;101838.97;5072460;28;20119;-29
2022/05/18 02:19:00;;;;;;;9.73;6.85;;;;;;;16.42;100.00;101835.84;5072487;28;20102;-30
2022/05/18 02:21:27;;;;;;;11.77;8.23;;;;;;;16.42;100.00;101838.66;5070077;28;20045;-29
2022/05/18 02:23:55;;;;;;;11.55;7.95;;;;;;;16.43;100.00;101837.53;5072484;28;20048;-30
2022/05/18 02:26:23;;;;;;;12.75;8.15;;;;;;;16.44;100.00;101844.00;5073612;28;20405;-29
2022/05/18 02:28:50;;;;;;;10.73;7.88;;;;;;;16.44;100.00;101839.19;5073157;28;20142;-30
2022/05/18 02:31:19;;;;;;;12.63;9.13;;;;;;;16.43;100.00;101836.69;5072600;28;20037;-36
2022/05/18 02:33:47;;;;;;;15.15;9.23;;;;;;;16.43;100.00;101843.16;5072931;28;20052;-34
2022/05/18 02:36:15;;;;;;;10.65;8.32;;;;;;;16.43;100.00;101840.34;5072427;28;20093;-29
2022/05/18 02:38:43;;;;;;;11.18;8.63;;;;;;;16.43;100.00;101842.31;5072768;28;20048;-30
2022/05/18 02:41:11;;;;;;;13.00;8.93;;;;;;;16.42;100.00;101838.66;5072904;28;20052;-30
2022/05/18 02:43:40;;;;;;;11.90;7.30;;;;;;;16.42;100.00;101833.03;5072239;28;20080;-27
2022/05/18 02:46:10;;;;;;;13.32;9.10;;;;;;;16.42;100.00;101829.38;5072927;28;20044;-30
2022/05/18 02:48:39;;;;;;;11.93;8.15;;;;;;;16.41;100.00;101824.91;5072967;28;20108;-28
2022/05/18 02:51:08;;;;;;;11.98;8.90;;;;;;;16.40;100.00;101823.22;5060671;28;20394;-28
2022/05/18 02:53:36;;;;;;;13.63;9.15;;;;;;;16.38;100.00;101828.38;5062147;28;20045;-28
2022/05/18 02:56:05;;;;;;;15.05;9.77;;;;;;;16.38;100.00;101825.56;5072865;28;20393;-28
2022/05/18 02:58:36;;;;;;;12.25;8.65;;;;;;;16.40;100.00;101834.50;5071838;28;20520;-28
2022/05/18 03:01:05;;;;;;;14.18;9.15;;;;;;;16.39;100.00;101836.47;5069383;28;20056;-36
2022/05/18 03:03:33;;;;;;;12.93;9.90;;;;;;;16.40;100.00;101842.94;5072355;28;20049;-31
2022/05/18 03:06:04;;;;;;;11.13;8.68;;;;;;;16.41;100.00;101831.38;5071502;28;20048;-26
2022/05/18 03:08:32;;;;;;;10.10;7.25;;;;;;;16.41;100.00;101828.56;5071862;28;20048;-34
2022/05/18 03:11:00;;;;;;;12.10;8.32;;;;;;;16.42;100.00;101827.41;5072368;28;20056;-32
2022/05/18 03:13:28;;;;;;;14.48;9.68;;;;;;;16.42;100.00;101830.22;5071383;28;20052;-31
2022/05/18 03:15:56;;;;;;;14.77;8.65;;;;;;;16.41;100.00;101831.38;5071974;28;20054;-33
2022/05/18 03:18:24;;;;;;;14.32;9.43;;;;;;;16.42;100.00;101832.19;5071986;28;20076;-35
2022/05/18 03:23:40;;;;;;;11.18;8.70;;;;;;;16.40;100.00;101831.69;5072178;28;20041;-28
2022/05/18 03:26:10;;;;;;;12.60;9.60;;;;;;;16.38;100.00;101834.00;5071366;28;20052;-32
2022/05/18 03:28:40;;;;;;;13.80;10.15;;;;;;;16.36;100.00;101837.13;5071787;28;20517;-33
2022/05/18 03:31:08;;;;;;;15.63;11.15;;;;;;;16.36;100.00;101839.13;5066069;28;20053;-36
2022/05/18 03:33:37;;;;;;;13.25;9.50;;;;;;;16.36;100.00;101841.94;5070976;28;20056;-28
2022/05/18 03:36:07;;;;;;;15.45;10.20;;;;;;;16.35;100.00;101843.91;5071810;28;20378;-29
2022/05/18 03:38:36;;;;;;;17.52;11.23;;;;;;;16.33;100.00;101848.19;5071901;28;20051;-29
2022/05/18 03:41:05;;;;;;;13.10;9.88;;;;;;;16.32;100.00;101847.34;5070971;28;20052;-30
2022/05/18 03:43:33;;;;;;;16.08;11.80;;;;;;;16.31;100.00;101842.03;5071852;28;20067;-29
2022/05/18 03:46:00;;;;;;;13.90;11.15;;;;;;;16.29;100.00;101847.97;5071778;28;20482;-30
2022/05/18 03:48:28;;;;;;;15.15;11.13;;;;;;;16.29;100.00;101849.97;5070835;28;20048;-32
2022/05/18 03:50:58;;;;;;;13.45;9.77;;;;;;;16.27;100.00;101849.44;5070286;28;20040;-31
2022/05/18 03:53:27;;;;;;;13.55;10.73;;;;;;;16.27;100.00;101850.28;5070408;28;20551;-29
2022/05/18 03:55:55;;;;;;;12.85;9.30;;;;;;;16.30;100.00;101857.25;5070000;28;20048;-29
2022/05/18 03:58:24;;;;;;;15.40;10.90;;;;;;;16.31;100.00;101850.47;5059654;28;20071;-35
2022/05/18 04:00:54;;;;;;;16.65;11.32;;;;;;;16.31;100.00;101856.13;5070121;28;20048;-33
2022/05/18 04:03:25;;;;;;;16.95;12.07;;;;;;;16.32;100.00;101861.44;5070813;28;20497;-33
2022/05/18 04:05:54;;;;;;;14.10;10.00;;;;;;;16.32;100.00;101869.06;5071411;28;20131;-31
2022/05/18 04:08:22;;;;;;;14.07;10.68;;;;;;;16.33;100.00;101873.53;5070515;28;20051;-30
2022/05/18 04:10:50;;;;;;;14.13;10.85;;;;;;;16.31;100.00;101871.03;5071070;28;20048;-30
2022/05/18 04:13:21;;;;;;;16.30;12.35;;;;;;;16.32;100.00;101871.88;5070140;28;20045;-28
2022/05/18 04:15:50;;;;;;;18.27;12.35;;;;;;;16.29;100.00;101878.13;5070649;28;20048;-28
2022/05/18 04:18:19;;;;;;;13.75;10.90;;;;;;;16.30;100.00;101882.63;5071137;28;20513;-28
2022/05/18 04:20:47;;;;;;;18.75;13.10;;;;;;;16.32;100.00;101877.50;5071111;28;20040;-27
2022/05/18 04:23:16;;;;;;;15.57;12.20;;;;;;;16.34;100.00;101889.28;5070327;28;20048;-28
2022/05/18 04:25:43;;;;;;;16.75;11.60;;;;;;;16.37;100.00;101883.88;5071058;28;20498;-28
2022/05/18 04:28:13;;;;;;;13.50;9.68;;;;;;;16.41;100.00;101889.69;5071006;28;20075;-28
2022/05/18 04:30:43;;;;;;;14.05;11.20;;;;;;;16.44;100.00;101891.88;5070009;28;20131;-31
2022/05/18 04:33:15;;;;;;;17.42;12.80;;;;;;;16.46;100.00;101896.06;5064772;28;20055;-29
2022/05/18 04:35:43;;;;;;;;;;;;;;;16.46;100.00;101909.31;5071623;28;20098;-31
2022/05/18 04:38:11;;;;;;;10.95;7.57;;;;;;;16.46;100.00;101915.78;5069590;28;20350;-32
2022/05/18 04:40:42;;;;;;;14.70;10.93;;;;;;;16.55;100.00;101913.09;5070574;28;20532;-32
2022/05/18 04:43:10;;;;;;;14.60;9.48;;;;;;;16.62;100.00;101927.56;5069072;28;20086;-28
2022/05/18 04:45:44;;;;;;;14.57;10.23;;;;;;;16.67;100.00;101927.50;5070476;28;20049;-34
2022/05/18 04:48:17;;;;;;;12.52;10.07;;;;;;;16.72;100.00;101923.75;5070262;28;20044;-30
2022/05/18 04:50:47;;;;;;;12.55;8.93;;;;;;;16.74;100.00;101936.38;5069503;28;20041;-29
2022/05/18 04:53:16;;;;;;;12.15;9.85;;;;;;;16.77;100.00;101944.22;5068924;28;20075;-30
2022/05/18 04:55:44;;;;;;;13.65;10.73;;;;;;;16.80;100.00;101949.19;5069866;28;20045;-28
2022/05/18 04:58:12;;;;;;;14.05;10.93;;;;;;;16.82;100.00;101946.91;5068727;28;20044;-29
2022/05/18 05:00:40;;;;;;;12.30;9.63;;;;;;;16.84;100.00;101949.41;5069612;28;20140;-28
2022/05/18 05:03:08;;;;;;;11.02;8.50;;;;;;;16.83;100.00;101942.94;5069751;28;20052;-29
2022/05/18 05:05:37;;;;;;;17.23;13.05;;;;;;;16.85;100.00;101945.44;5057661;28;20405;-28
2022/05/18 05:08:05;;;;;;;13.18;9.20;;;;;;;16.86;100.00;101944.28;5058893;28;20052;-29
2022/05/18 05:10:32;;;;;;;10.20;8.25;;;;;;;16.84;100.00;101953.06;5069219;28;20494;-29
2022/05/18 05:13:00;;;;;;;9.23;7.22;;;;;;;16.81;100.00;101950.88;5068419;28;20517;-29
2022/05/18 05:15:28;;;;;;;8.30;6.30;;;;;;;16.83;100.00;101950.56;5069445;28;20063;-27
2022/05/18 05:17:56;;;;;;;7.28;5.57;;;;;;;16.85;100.00;101951.91;5066001;28;20115;-29
2022/05/18 05:20:23;;;;;;;11.50;8.50;;;;;;;16.87;100.00;101957.22;5069063;28;20052;-32
2022/05/18 05:22:52;;;;;;;9.38;6.75;;;;;;;16.90;100.00;101961.41;5069347;28;20430;-34
2022/05/18 05:25:20;;;;;;;11.98;8.65;;;;;;;16.93;100.00;101957.97;5068646;28;20063;-32
2022/05/18 05:27:49;;;;;;;10.20;7.38;;;;;;;16.94;100.00;101952.00;5069078;28;20048;-29
2022/05/18 05:30:16;;;;;;;8.52;6.78;;;;;;;16.96;100.00;101957.34;5069174;28;20052;-30
2022/05/18 05:32:44;;;;;;;8.82;7.32;;;;;;;17.00;100.00;101966.81;5068319;28;20057;-29
2022/05/18 05:35:13;;;;;;;14.77;10.43;;;;;;;17.05;100.00;101963.88;5069565;28;20406;-32
2022/05/18 05:37:41;;;;;;;13.68;10.05;;;;;;;17.08;100.00;101969.75;5069320;28;20053;-29
2022/05/18 05:40:12;;;;;;;13.60;9.30;;;;;;;17.14;100.00;101962.00;5069061;28;20473;-29
2022/05/18 05:42:40;;;;;;;17.33;11.18;;;;;;;17.19;100.00;101961.88;5070375;28;20044;-31
2022/05/18 05:45:09;;;;;;;13.65;10.77;;;;;;;17.23;100.00;101963.75;5068450;28;20489;-33
2022/05/18 05:47:37;;;;;;;13.45;11.23;;;;;;;17.28;100.00;101954.34;5067200;28;20071;-33
2022/05/18 05:50:13;;;;;;;19.75;13.88;;;;;;;17.30;100.00;101960.50;5067762;28;20054;-32
2022/05/18 05:52:41;;;;;;;17.92;12.65;;;;;;;17.33;100.00;101962.69;5069873;28;20048;-29
2022/05/18 05:55:10;;;;;;;13.18;10.18;;;;;;;17.38;100.00;101965.41;5072094;28;20115;-34
2022/05/18 05:57:38;;;;;;;16.40;12.52;;;;;;;17.41;100.00;101970.38;5073664;28;20041;-34
2022/05/18 06:00:07;;;;;;;18.85;13.98;;;;;;;17.44;100.00;101986.66;5073686;28;20044;-32
2022/05/18 06:02:41;;;;;;;16.45;12.55;;;;;;;17.45;100.00;101982.69;5073663;28;20107;-31
2022/05/18 06:05:10;;;;;;;18.63;12.10;;;;;;;17.50;100.00;102002.34;5073813;28;20049;-30
2022/05/18 06:07:37;;;;;;;16.23;12.60;;;;;;;17.55;100.00;101988.13;5072879;28;20052;-34
2022/05/18 06:10:06;;;;;;;18.10;12.85;;;;;;;17.60;100.00;101989.13;5073764;28;20063;-36
2022/05/18 06:12:35;;;;;;;17.38;12.60;;;;;;;17.62;100.00;101987.66;5073292;28;20037;-30
2022/05/18 06:15:04;;;;;;;16.77;12.63;;;;;;;17.67;100.00;101987.56;5072727;28;20135;-36
2022/05/18 06:17:31;;;;;;;16.40;13.05;;;;;;;17.71;100.00;101990.59;5072017;28;20057;-32
2022/05/18 06:19:59;;;;;;;17.88;13.70;;;;;;;17.77;100.00;101987.34;5073746;28;20041;-34
2022/05/18 06:22:27;;;;;;;18.45;13.35;;;;;;;17.86;100.00;101993.03;5072607;28;20044;-27
2022/05/18 06:24:54;;;;;;;20.25;14.98;;;;;;;17.99;100.00;101994.94;5073356;28;20044;-31
2022/05/18 06:27:23;;;;;;;20.40;14.35;;;;;;;18.16;100.00;101997.91;5073250;28;20056;-29
2022/05/18 06:29:52;;;;;;;16.23;12.38;;;;;;;18.43;100.00;102002.53;5071098;28;20056;-34
2022/05/18 06:32:19;;;;;;;18.30;13.50;;;;;;;18.78;100.00;102006.41;5072980;28;20033;-35
2022/05/18 06:34:48;;;;;;;19.60;14.68;;;;;;;19.12;100.00;102008.50;5073049;28;20040;-29
2022/05/18 06:37:16;;;;;;;17.98;13.95;;;;;;;19.44;100.00;102006.38;5072287;28;20044;-30
2022/05/18 06:39:44;;;;;;;20.50;14.18;;;;;;;19.67;100.00;102009.91;5072923;28;20075;-30
2022/05/18 06:42:12;;;;;;;19.50;14.18;;;;;;;20.03;100.00;102016.06;5072737;28;20049;-29
2022/05/18 06:44:44;;;;;;;17.63;12.48;;;;;;;20.47;100.00;102019.66;5070787;28;20052;-32
2022/05/18 06:47:13;;;;;;;17.48;11.00;;;;;;;20.92;100.00;102020.00;5072901;28;20044;-29
2022/05/18 06:49:41;;;;;;;16.25;11.65;;;;;;;21.24;100.00;102025.00;5070764;28;20409;-30
2022/05/18 06:52:14;;;;;;;15.25;11.88;;;;;;;21.62;96.48;102036.28;5072788;28;20101;-30
2022/05/18 06:54:42;;;;;;;15.23;11.77;;;;;;;21.69;94.50;102040.56;5072595;28;20040;-30
2022/05/18 06:57:29;;;;;;;17.65;12.18;;;;;;;21.75;92.95;102040.03;5072260;28;20110;-35
2022/05/18 06:59:57;;;;;;;14.85;11.23;;;;;;;21.96;93.26;102038.00;5072484;28;20510;-31
2022/05/18 07:02:26;;;;;;;14.82;11.63;;;;;;;22.17;91.30;102048.56;5072539;28;20047;-37
2022/05/18 07:04:54;;;;;;;16.27;12.27;;;;;;;22.39;88.35;102048.13;5071303;28;20052;-35
2022/05/18 07:07:22;;;;;;;14.70;10.88;;;;;;;22.55;88.29;102054.84;5072275;28;20049;-29
2022/05/18 07:09:50;;;;;;;15.50;10.77;;;;;;;22.72;86.25;102064.34;5072216;28;20485;-29
2022/05/18 07:12:17;;;;;;;17.80;12.63;;;;;;;22.65;85.16;102062.09;5071754;28;20044;-36
2022/05/18 07:14:45;;;;;;;16.55;13.15;;;;;;;22.77;84.18;102065.00;5072222;28;20048;-29
2022/05/18 07:17:19;;;;;;;16.17;11.38;;;;;;;22.90;83.06;102072.38;5061015;28;20522;-29
2022/05/18 07:19:48;;;;;;;22.35;13.25;;;;;;;23.09;81.90;102068.09;5071389;28;20409;-30
2022/05/18 07:22:16;;;;;;;14.65;11.15;;;;;;;23.34;81.54;102064.06;5072186;28;20054;-30
2022/05/18 07:24:44;;;;;;;16.63;11.65;;;;;;;23.76;79.80;102072.38;5071379;28;20512;-29
2022/05/18 07:27:12;;;;;;;15.27;10.27;;;;;;;24.22;77.22;102065.19;5072210;28;20048;-36
2022/05/18 07:29:40;;;;;;;13.45;10.15;;;;;;;24.62;75.06;102070.81;5071897;28;20067;-33
2022/05/18 07:32:12;;;;;;;15.90;11.23;;;;;;;25.10;73.33;102071.72;5071177;28;20063;-32
2022/05/18 07:34:40;;;;;;;14.80;10.88;;;;;;;25.54;69.79;102073.25;5071809;28;20413;-37
2022/05/18 07:37:10;;;;;;;16.83;11.35;;;;;;;25.69;67.88;102069.53;5072004;28;20060;-29
2022/05/18 07:39:38;;;;;;;20.02;11.30;;;;;;;25.83;67.02;102062.47;5071052;28;20390;-31
2022/05/18 07:42:07;;;;;;;18.17;13.38;;;;;;;26.01;64.32;102073.09;5071902;28;20056;-33
2022/05/18 07:44:36;;;;;;;15.70;10.98;;;;;;;26.32;63.45;102071.34;5065918;28;20048;-31
2022/05/18 07:47:05;;;;;;;14.32;9.57;;;;;;;26.68;62.17;102072.88;5070656;28;20048;-36
2022/05/18 07:49:35;;;;;;;14.02;10.95;;;;;;;26.95;60.08;102066.03;5071692;28;20126;-32
2022/05/18 07:52:04;;;;;;;13.75;9.32;;;;;;;27.18;59.27;102073.81;5071702;28;20052;-31
2022/05/18 07:54:34;;;;;;;13.15;9.93;;;;;;;27.44;57.60;102070.94;5070585;28;20045;-30
2022/05/18 07:57:06;;;;;;;13.20;8.55;;;;;;;27.57;56.68;102081.03;5071524;28;20051;-33
2022/05/18 07:59:34;;;;;;;15.95;10.13;;;;;;;27.77;55.28;102085.44;5071369;28;20044;-30
2022/05/18 08:02:01;;;;;;;13.88;9.88;;;;;;;28.10;53.81;102086.69;5070649;28;20048;-29
2022/05/18 08:04:29;;;;;;;15.27;10.27;;;;;;;28.30;52.57;102096.81;5071137;28;20063;-30
2022/05/18 08:06:57;;;;;;;12.90;8.60;;;;;;;28.52;51.57;102088.47;5070635;28;20471;-29
2022/05/18 08:09:25;;;;;;;10.55;9.00;;;;;;;28.68;50.60;102103.41;5071355;28;20041;-31
2022/05/18 08:17:25;;;;;;;15.57;10.57;;;;;;;29.38;47.35;102109.03;5070542;28;20056;-30
2022/05/18 08:19:53;;;;;;;11.80;8.13;;;;;;;29.68;47.05;102114.66;5071102;28;20044;-31
2022/05/18 08:22:21;;;;;;;12.10;8.90;;;;;;;30.03;45.72;102113.25;5070198;28;20044;-31
2022/05/18 08:24:49;;;;;;;12.32;8.65;;;;;;;30.39;44.80;102126.56;5071255;28;20071;-32
2022/05/18 08:27:18;;;;;;;12.45;8.32;;;;;;;30.68;44.27;102127.53;5071397;28;20057;-31
2022/05/18 08:29:46;;;;;;;9.25;6.93;;;;;;;30.92;43.83;102125.13;5059388;28;20060;-31
2022/05/18 08:32:14;;;;;;;10.95;7.47;;;;;;;31.11;42.67;102116.13;5071386;28;20052;-36
2022/05/18 08:34:41;;;;;;;10.77;7.90;;;;;;;31.23;41.66;102121.47;5070857;28;20487;-33
2022/05/18 08:37:10;;;;;;;11.55;8.20;;;;;;;31.40;41.23;102114.88;5070243;28;20056;-30
2022/05/18 08:39:38;;;;;;;12.45;7.63;;;;;;;31.55;40.53;102117.78;5071340;28;20048;-34
2022/05/18 08:42:08;;;;;;;10.93;6.57;;;;;;;31.70;40.35;102113.66;5070074;28;20502;-31
2022/05/18 08:44:37;;;;;;;11.27;7.57;;;;;;;31.82;39.25;102122.69;5070802;28;20129;-37
2022/05/18 08:47:11;;;;;;;9.38;6.63;;;;;;;31.71;39.26;102110.38;5070935;28;20053;-35
2022/05/18 08:49:50;;;;;;;8.23;6.00;;;;;;;31.33;38.51;102116.97;5070039;28;20056;-37
2022/05/18 08:52:29;;;;;;;8.77;5.57;;;;;;;30.93;39.68;102118.97;5070973;28;20063;-32
2022/05/18 08:55:31;;;;;;;9.93;6.60;;;;;;;30.59;38.68;102121.31;5070900;28;20482;-37
2022/05/18 08:58:00;;;;;;;9.68;6.28;;;;;;;30.37;41.73;102117.53;5070337;28;20041;-33
2022/05/18 09:00:36;;;;;;;7.85;5.80;;;;;;;30.60;40.91;102127.91;5070916;28;20075;-36
2022/05/18 09:03:07;;;;;;;9.05;6.03;;;;;;;30.80;41.18;102123.44;5070571;28;20040;-30
2022/05/18 09:05:41;;;;;;;8.07;5.63;;;;;;;31.02;40.67;102139.56;5068035;28;20080;-31
2022/05/18 09:08:13;;;;;;;9.27;6.78;;;;;;;31.28;39.14;102143.31;5069976;28;20052;-40
2022/05/18 09:10:45;;;;;;;12.57;7.03;;;;;;;31.45;38.87;102154.03;5066775;28;20053;-30
2022/05/18 09:13:13;;;;;;;12.35;7.38;;;;;;;31.50;38.50;102160.25;5070466;28;20037;-33
2022/05/18 09:15:55;;;;;;;10.98;7.03;;;;;;;31.63;37.39;102165.59;5070520;28;20118;-32
2022/05/18 09:18:33;;;;;;;10.55;6.53;;;;;;;31.75;37.58;102156.56;5068751;28;20052;-30
2022/05/18 09:21:12;;;;;;;9.20;5.80;;;;;;;31.84;37.78;102160.66;5067581;28;20051;-32
2022/05/18 09:23:51;;;;;;;10.10;6.85;;;;;;;32.02;37.15;102159.78;5070805;28;20064;-29
2022/05/18 09:26:43;;;;;;;8.88;6.25;;;;;;;32.12;36.86;102171.31;5067653;28;20044;-37
2022/05/18 09:29:21;;;;;;;8.95;5.60;;;;;;;32.14;36.81;102165.97;5048648;28;20044;-32
2022/05/18 09:32:09;;;;;;;10.70;7.13;;;;;;;32.19;36.35;102171.28;5073815;28;20063;-33
2022/05/18 09:34:57;;;;;;;8.18;5.05;;;;;;;32.32;35.59;102174.59;5063570;28;20512;-34
2022/05/18 09:37:32;;;;;;;7.95;4.93;;;;;;;32.44;35.94;102176.19;5074084;28;20136;-31
2022/05/18 09:40:06;;;;;;;8.38;5.40;;;;;;;32.54;35.58;102186.91;5073525;28;20047;-31
2022/05/18 09:42:39;;;;;;;9.75;6.15;;;;;;;32.57;35.57;102186.06;5074273;28;20107;-31
2022/05/18 09:45:11;;;;;;;6.47;4.38;;;;;;;32.52;35.32;102180.72;5074189;28;20085;-30
2022/05/18 09:47:46;;;;;;;6.88;4.85;;;;;;;32.36;34.83;102181.19;5073182;28;20048;-36
2022/05/18 09:50:14;;;;;;;9.32;6.10;;;;;;;32.34;34.83;102189.47;5073928;28;20035;-30
2022/05/18 09:52:45;;;;;;;8.95;5.13;;;;;;;32.24;34.82;102196.06;5072972;28;20079;-33
2022/05/18 09:55:15;;;;;;;7.70;4.97;;;;;;;32.08;35.10;102189.91;5073889;28;20044;-32
2022/05/18 09:57:49;;;;;;;8.30;5.60;;;;;;;31.89;35.32;102190.34;5063156;28;20037;-31
2022/05/18 10:00:21;;;;;;;7.70;5.00;;;;;;;31.82;35.66;102194.88;5072854;28;20048;-32
2022/05/18 10:08:36;;;;;;;8.45;5.13;;;;;;;31.76;35.66;102193.66;5073090;28;20465;-31
2022/05/18 10:11:09;;;;;;;8.43;4.63;;;;;;;31.90;35.15;102194.88;5073658;28;20070;-40
2022/05/18 10:13:43;;;;;;;7.65;5.07;;;;;;;31.94;35.70;102198.59;5072678;28;20048;-32
2022/05/18 10:16:17;;;;;;;7.38;4.50;;;;;;;32.03;34.81;102210.53;5073510;28;20059;-37
2022/05/18 10:18:51;;;;;;;6.88;3.22;;;;;;;32.07;35.00;102205.56;5073966;28;20054;-37
2022/05/18 10:21:24;;;;;;;6.40;4.05;;;;;;;32.16;34.70;102188.66;5072582;28;20052;-32
2022/05/18 10:24:05;;;;;;;6.15;3.53;;;;;;;32.29;34.83;102197.72;5073424;28;20048;-37
2022/05/18 10:26:35;;;;;;;8.20;4.30;;;;;;;32.35;34.32;102187.38;5073375;28;20413;-39
2022/05/18 10:29:07;;;;;;;9.55;5.13;;;;;;;32.31;34.45;102192.34;5072474;28;20049;-35
2022/05/18 10:31:37;;;;;;;6.47;3.75;;;;;;;32.30;34.11;102205.97;5073059;28;20044;-37
2022/05/18 10:34:18;;;;;;;6.50;2.70;;;;;;;32.26;34.47;102193.59;5073377;28;20060;-31
2022/05/18 10:36:48;;;;;;;6.03;3.40;;;;;;;32.27;34.67;102191.53;5062650;28;20052;-32
2022/05/18 10:39:31;;;;;;;;;;;;;;;32.27;33.42;102194.41;5072700;28;20040;-36
2022/05/18 10:41:59;;;;;;;5.22;2.65;;;;;;;32.27;34.74;102188.66;5061912;28;19928;-30
2022/05/18 10:44:36;;;;;;;6.72;2.42;;;;;;;32.18;34.41;102200.59;5073273;28;20090;-34
2022/05/18 10:47:21;;;;;;;6.10;2.65;;;;;;;32.02;33.33;102206.00;5062848;28;20040;-31
2022/05/18 10:49:50;;;;;;;4.97;2.42;;;;;;;31.88;33.75;102201.06;5072134;28;20051;-38
2022/05/18 10:52:21;;;;;;;5.10;2.63;;;;;;;31.83;33.88;102199.41;5072550;28;20077;-37
2022/05/18 10:54:53;;;;;;;;;;;;;;;31.66;32.13;102214.69;5073440;28;20668;-31
2022/05/18 10:57:29;;;;;;;4.35;2.42;;;;;;;31.67;34.13;102207.69;5061343;28;19968;-36
2022/05/18 11:00:04;;;;;;;5.28;2.22;;;;;;;31.73;33.41;102214.69;5072814;28;20136;-32
2022/05/18 11:02:41;;;;;;;4.30;1.85;;;;;;;31.60;33.76;102210.53;5061902;28;20056;-31
2022/05/18 11:05:20;;;;;;;5.43;2.40;;;;;;;31.58;34.00;102220.81;5072730;28;20036;-37
2022/05/18 11:07:50;;;;;;;6.07;2.58;;;;;;;31.43;34.63;102220.81;5062859;28;20079;-31
2022/05/18 11:10:18;;;;;;;7.03;2.72;;;;;;;31.43;34.36;102225.75;5071853;28;20053;-31
2022/05/18 11:12:51;;;;;;;3.72;1.58;;;;;;;31.41;35.15;102219.56;5072346;28;20411;-39
2022/05/18 11:15:32;;;;;;;4.68;2.17;;;;;;;31.35;34.59;102227.00;5062025;28;20047;-34
2022/05/18 11:18:12;;;;;;;3.63;1.73;;;;;;;31.26;34.38;102226.56;5060721;28;20057;-37
2022/05/18 11:20:54;;;;;;;4.37;2.03;;;;;;;31.25;34.21;102222.03;5063263;28;20048;-31
2022/05/18 11:23:38;;;;;;;6.32;2.80;;;;;;;31.34;33.43;102222.47;5062615;28;20119;-30
2022/05/18 11:26:17;;;;;;;5.03;2.60;;;;;;;31.41;33.53;102213.81;5071342;28;20528;-31
2022/05/18 11:29:24;;;;;;;3.67;1.55;;;;;;;31.33;33.92;102215.03;5072178;28;20127;-32
2022/05/18 11:32:05;;;;;;;6.53;1.85;;;;;;;31.25;33.72;102210.50;5071456;28;20055;-34
2022/05/18 11:34:39;;;;;;;5.25;2.00;;;;;;;31.17;34.22;102210.50;5072165;28;20067;-32
2022/05/18 11:37:21;;;;;;;4.25;1.75;;;;;;;31.09;33.96;102217.44;5071986;28;20049;-31
2022/05/18 11:40:00;;;;;;;3.70;1.70;;;;;;;31.04;33.94;102209.19;5071115;28;20052;-35
2022/05/18 11:42:38;;;;;;;4.38;1.83;;;;;;;30.87;34.27;102201.31;5071816;28;20052;-32
2022/05/18 11:45:18;;;;;;;7.03;2.40;;;;;;;30.82;34.63;102202.53;5071377;28;20056;-31